createdAt,value
2023-05-05T00:00:26.966Z,99.90
2023-05-05T00:02:54.253Z,99.90
2023-05-05T00:05:21.838Z,99.90
2023-05-05T00:07:49.194Z,99.90
2023-05-05T00:10:16.750Z,99.90
2023-05-05T00:12:43.910Z,99.90
2023-05-05T00:15:11.081Z,99.90
2023-05-05T00:17:38.372Z,99.90
2023-05-05T00:20:06.580Z,99.90
2023-05-05T00:22:33.974Z,99.90
2023-05-05T00:25:01.159Z,99.90
2023-05-05T00:27:28.325Z,99.90
2023-05-05T00:29:55.633Z,99.90
2023-05-05T00:32:22.891Z,99.90
2023-05-05T00:34:50.044Z,99.90
2023-05-05T00:37:17.568Z,99.90
2023-05-05T00:39:45.454Z,99.90
2023-05-05T00:42:12.589Z,99.90
2023-05-05T00:44:42.841Z,99.90
2023-05-05T00:47:10.447Z,99.90
2023-05-05T00:49:38.221Z,99.90
2023-05-05T00:52:07.486Z,99.90
2023-05-05T00:54:36.229Z,99.90
2023-05-05T00:57:04.166Z,99.90
2023-05-05T00:59:33.408Z,99.90
2023-05-05T01:02:03.568Z,99.90
2023-05-05T01:04:30.726Z,99.90
2023-05-05T01:07:22.428Z,99.90
2023-05-05T01:10:18.237Z,99.90
2023-05-05T01:12:52.297Z,99.90
2023-05-05T01:15:44.385Z,99.90
2023-05-05T01:18:14.311Z,99.90
2023-05-05T01:20:55.645Z,99.90
2023-05-05T01:24:05.410Z,99.90
2023-05-05T01:26:55.927Z,99.90
2023-05-05T01:29:49.299Z,99.90
2023-05-05T01:32:24.565Z,99.90
2023-05-05T01:35:03.288Z,99.90
2023-05-05T01:37:55.900Z,99.90
2023-05-05T01:40:27.068Z,99.90
2023-05-05T01:42:56.558Z,99.90
2023-05-05T01:45:27.374Z,99.90
2023-05-05T01:47:56.595Z,99.90
2023-05-05T01:50:27.730Z,99.90
2023-05-05T01:52:56.758Z,99.90
2023-05-05T01:55:26.560Z,99.90
2023-05-05T01:57:56.349Z,99.90
2023-05-05T02:00:25.361Z,99.90
2023-05-05T02:02:55.105Z,99.90
2023-05-05T02:05:23.623Z,99.90
2023-05-05T02:07:58.313Z,99.90
2023-05-05T02:10:25.908Z,99.90
2023-05-05T02:12:54.142Z,99.90
2023-05-05T02:15:23.861Z,99.90
2023-05-05T02:17:54.874Z,99.90
2023-05-05T02:20:24.600Z,99.90
2023-05-05T02:22:51.677Z,99.90
2023-05-05T02:25:18.941Z,99.90
2023-05-05T02:27:46.952Z,99.90
2023-05-05T02:30:18.490Z,99.90
2023-05-05T02:32:53.677Z,99.90
2023-05-05T02:35:24.527Z,99.90
2023-05-05T02:37:56.426Z,99.90
2023-05-05T02:40:26.497Z,99.90
2023-05-05T02:42:56.546Z,99.90
2023-05-05T02:45:25.089Z,99.90
2023-05-05T02:47:52.273Z,99.90
2023-05-05T02:50:19.483Z,99.90
2023-05-05T02:52:47.221Z,99.90
2023-05-05T02:55:15.104Z,99.90
2023-05-05T02:58:06.841Z,99.90
2023-05-05T03:00:58.581Z,99.90
2023-05-05T03:03:33.802Z,99.90
2023-05-05T03:06:28.591Z,99.90
2023-05-05T03:09:16.097Z,99.90
2023-05-05T03:12:01.249Z,99.90
2023-05-05T03:14:32.811Z,99.90
2023-05-05T03:17:01.550Z,99.90
2023-05-05T03:19:29.703Z,99.90
2023-05-05T03:21:57.144Z,99.90
2023-05-05T03:24:24.416Z,99.90
2023-05-05T03:26:51.710Z,99.90
2023-05-05T03:29:18.961Z,99.90
2023-05-05T03:31:46.306Z,99.90
2023-05-05T03:34:13.831Z,99.90
2023-05-05T03:36:41.110Z,99.90
2023-05-05T03:39:08.514Z,99.90
2023-05-05T03:41:36.012Z,99.90
2023-05-05T03:44:03.485Z,99.90
2023-05-05T03:46:30.634Z,99.90
2023-05-05T03:48:57.750Z,99.90
2023-05-05T03:51:25.538Z,99.90
2023-05-05T03:53:52.645Z,99.90
2023-05-05T03:56:19.813Z,99.90
2023-05-05T03:58:46.934Z,99.90
2023-05-05T04:01:14.150Z,99.90
2023-05-05T04:03:41.482Z,99.90
2023-05-05T04:06:08.739Z,99.90
2023-05-05T04:08:36.354Z,99.90
2023-05-05T04:11:03.573Z,99.90
2023-05-05T04:13:30.691Z,99.90
2023-05-05T04:15:59.971Z,99.90
2023-05-05T04:18:27.188Z,99.90
2023-05-05T04:20:54.437Z,99.90
2023-05-05T04:23:21.605Z,99.90
2023-05-05T04:25:48.824Z,99.90
2023-05-05T04:28:16.101Z,99.90
2023-05-05T04:30:43.258Z,99.90
2023-05-05T04:33:10.340Z,99.90
2023-05-05T04:35:37.589Z,99.90
2023-05-05T04:38:04.903Z,99.90
2023-05-05T04:40:32.092Z,99.90
2023-05-05T04:42:59.759Z,99.90
2023-05-05T04:45:26.924Z,99.90
2023-05-05T04:47:54.262Z,99.90
2023-05-05T04:50:21.910Z,99.90
2023-05-05T04:52:50.254Z,99.90
2023-05-05T04:55:18.495Z,99.90
2023-05-05T04:57:45.587Z,99.90
2023-05-05T05:00:13.196Z,99.90
2023-05-05T05:02:40.469Z,99.90
2023-05-05T05:05:08.155Z,99.90
2023-05-05T05:07:35.278Z,99.90
2023-05-05T05:10:02.521Z,99.90
2023-05-05T05:12:29.915Z,99.90
2023-05-05T05:14:57.215Z,99.90
2023-05-05T05:17:25.145Z,99.90
2023-05-05T05:19:52.409Z,99.90
2023-05-05T05:22:19.604Z,99.90
2023-05-05T05:24:46.882Z,99.90
2023-05-05T05:27:14.112Z,99.90
2023-05-05T05:29:41.368Z,99.90
2023-05-05T05:32:08.717Z,99.90
2023-05-05T05:34:35.949Z,99.90
2023-05-05T05:37:03.090Z,99.90
2023-05-05T05:39:30.262Z,99.90
2023-05-05T05:41:57.540Z,99.90
2023-05-05T05:44:24.707Z,99.90
2023-05-05T05:46:51.762Z,99.90
2023-05-05T05:49:18.928Z,99.90
2023-05-05T05:51:46.028Z,99.90
2023-05-05T05:54:13.191Z,99.90
2023-05-05T05:56:40.368Z,99.90
2023-05-05T05:59:10.445Z,99.90
2023-05-05T06:01:38.149Z,99.90
2023-05-05T06:04:05.336Z,99.90
2023-05-05T06:06:32.533Z,99.90
2023-05-05T06:08:59.800Z,99.90
2023-05-05T06:11:27.091Z,99.90
2023-05-05T06:13:54.223Z,99.90
2023-05-05T06:16:21.362Z,99.60
2023-05-05T06:18:49.018Z,97.70
2023-05-05T06:21:16.406Z,95.40
2023-05-05T06:23:43.559Z,93.50
2023-05-05T06:26:10.978Z,91.20
2023-05-05T06:28:38.158Z,91.70
2023-05-05T06:31:05.283Z,87.70
2023-05-05T06:33:32.833Z,90.00
2023-05-05T06:35:59.943Z,90.40
2023-05-05T06:38:27.051Z,89.60
2023-05-05T06:40:54.175Z,88.00
2023-05-05T06:43:22.125Z,88.60
2023-05-05T06:45:49.340Z,89.70
2023-05-05T06:48:16.502Z,89.80
2023-05-05T06:50:43.681Z,88.10
2023-05-05T06:53:11.189Z,87.70
2023-05-05T06:55:38.330Z,87.10
2023-05-05T06:58:05.551Z,87.60
2023-05-05T07:00:32.761Z,86.60
2023-05-05T07:03:00.094Z,85.10
2023-05-05T07:05:27.251Z,86.20
2023-05-05T07:07:55.784Z,84.60
2023-05-05T07:10:24.249Z,85.30
2023-05-05T07:12:51.939Z,87.60
2023-05-05T07:15:27.686Z,85.40
2023-05-05T07:17:56.930Z,85.60
2023-05-05T07:20:24.688Z,86.80
2023-05-05T07:22:52.068Z,86.20
2023-05-05T07:25:19.255Z,86.10
2023-05-05T07:27:46.532Z,84.90
2023-05-05T07:30:16.521Z,83.70
2023-05-05T07:32:46.063Z,84.00
2023-05-05T07:35:13.640Z,83.10
2023-05-05T07:37:40.850Z,84.10
2023-05-05T07:40:09.047Z,84.60
2023-05-05T07:42:36.463Z,84.40
2023-05-05T07:45:04.855Z,81.10
2023-05-05T07:47:32.534Z,80.80
2023-05-05T07:50:01.023Z,80.20
2023-05-05T07:52:44.207Z,79.90
2023-05-05T07:55:15.490Z,79.20
2023-05-05T07:57:42.712Z,79.90
2023-05-05T08:00:11.027Z,80.10
2023-05-05T08:02:39.904Z,78.20
2023-05-05T08:05:08.306Z,77.50
2023-05-05T08:07:37.076Z,77.20
2023-05-05T08:10:04.482Z,76.90
2023-05-05T08:12:31.876Z,76.80
2023-05-05T08:14:59.134Z,77.40
2023-05-05T08:17:27.347Z,76.80
2023-05-05T08:19:54.959Z,76.20
2023-05-05T08:22:22.938Z,77.30
2023-05-05T08:24:50.120Z,78.40
2023-05-05T08:27:17.271Z,79.50
2023-05-05T08:29:44.560Z,80.30
2023-05-05T08:32:11.818Z,77.20
2023-05-05T08:34:39.225Z,77.80
2023-05-05T08:37:06.526Z,77.40
2023-05-05T08:39:33.840Z,76.10
2023-05-05T08:42:00.929Z,77.20
2023-05-05T08:44:29.063Z,78.00
2023-05-05T08:46:56.860Z,78.30
2023-05-05T08:49:25.179Z,77.10
2023-05-05T08:51:54.355Z,76.40
2023-05-05T08:54:27.428Z,76.20
2023-05-05T08:56:57.613Z,76.90
2023-05-05T08:59:25.417Z,77.60
2023-05-05T09:01:54.368Z,78.40
2023-05-05T09:04:21.880Z,79.00
2023-05-05T09:06:49.036Z,81.90
2023-05-05T09:09:17.259Z,81.50
2023-05-05T09:11:46.303Z,81.10
2023-05-05T09:14:13.412Z,80.70
2023-05-05T09:16:44.417Z,80.50
2023-05-05T09:19:11.672Z,80.30
2023-05-05T09:21:48.944Z,80.70
2023-05-05T09:24:16.358Z,79.50
2023-05-05T09:26:45.530Z,79.40
2023-05-05T09:29:23.454Z,79.90
2023-05-05T09:32:11.045Z,79.50
2023-05-05T09:34:38.737Z,79.70
2023-05-05T09:37:06.530Z,79.50
2023-05-05T09:39:33.808Z,78.80
2023-05-05T09:42:01.591Z,79.60
2023-05-05T09:44:40.945Z,77.70
2023-05-05T09:47:18.483Z,76.70
2023-05-05T09:49:59.716Z,76.50
2023-05-05T09:52:26.954Z,75.10
2023-05-05T09:54:58.236Z,76.60
2023-05-05T09:57:34.148Z,73.60
2023-05-05T10:00:02.659Z,74.40
2023-05-05T10:02:35.226Z,74.00
2023-05-05T10:05:07.838Z,73.60
2023-05-05T10:07:36.005Z,72.70
2023-05-05T10:10:08.752Z,72.20
2023-05-05T10:12:37.322Z,72.20
2023-05-05T10:15:05.760Z,72.90
2023-05-05T10:17:36.768Z,72.00
2023-05-05T10:20:05.043Z,71.10
2023-05-05T10:22:34.882Z,70.60
2023-05-05T10:25:11.554Z,69.80
2023-05-05T10:27:45.013Z,71.20
2023-05-05T10:30:33.052Z,68.00
2023-05-05T10:33:30.990Z,68.20
2023-05-05T10:36:01.826Z,67.00
2023-05-05T10:38:33.970Z,67.60
2023-05-05T10:41:05.382Z,69.20
2023-05-05T10:43:32.885Z,68.90
2023-05-05T10:46:00.901Z,67.50
2023-05-05T10:48:40.758Z,66.40
2023-05-05T10:51:43.615Z,67.50
2023-05-05T10:54:23.389Z,68.70
2023-05-05T10:56:51.468Z,68.30
2023-05-05T10:59:39.410Z,66.10
2023-05-05T11:02:29.618Z,65.90
2023-05-05T11:05:22.849Z,65.50
2023-05-05T11:07:51.804Z,66.60
2023-05-05T11:10:20.867Z,64.90
2023-05-05T11:13:05.872Z,64.50
2023-05-05T11:15:38.143Z,64.90
2023-05-05T11:18:07.857Z,65.80
2023-05-05T11:20:41.183Z,65.00
2023-05-05T11:23:08.326Z,63.40
2023-05-05T11:25:35.889Z,63.50
2023-05-05T11:28:17.845Z,64.70
2023-05-05T11:30:58.146Z,63.90
2023-05-05T11:33:36.184Z,64.20
2023-05-05T11:36:17.172Z,64.70
2023-05-05T11:39:10.110Z,64.10
2023-05-05T11:42:32.352Z,64.30
2023-05-05T11:44:59.925Z,63.10
2023-05-05T11:47:28.572Z,65.00
2023-05-05T11:49:56.299Z,63.40
2023-05-05T11:52:25.779Z,63.70
2023-05-05T11:54:52.954Z,63.50
2023-05-05T11:57:28.264Z,64.10
2023-05-05T11:59:58.131Z,63.90
2023-05-05T12:02:27.964Z,64.40
2023-05-05T12:04:56.350Z,64.30
2023-05-05T12:07:28.432Z,62.90
2023-05-05T12:09:56.217Z,63.40
2023-05-05T12:12:35.821Z,62.80
2023-05-05T12:15:04.063Z,63.80
2023-05-05T12:17:42.923Z,62.60
2023-05-05T12:20:12.323Z,63.00
2023-05-05T12:22:40.112Z,62.80
2023-05-05T12:25:08.913Z,62.60
2023-05-05T12:27:36.244Z,61.00
2023-05-05T12:30:18.077Z,61.50
2023-05-05T12:32:46.085Z,61.70
2023-05-05T12:35:14.176Z,61.20
2023-05-05T12:37:42.519Z,61.30
2023-05-05T12:41:01.926Z,60.70
2023-05-05T12:43:34.544Z,61.40
2023-05-05T12:46:07.546Z,62.10
2023-05-05T12:48:36.033Z,62.20
2023-05-05T12:51:20.766Z,61.20
2023-05-05T12:53:49.972Z,61.10
2023-05-05T12:56:52.427Z,61.20
2023-05-05T12:59:22.165Z,61.00
2023-05-05T13:01:56.734Z,59.20
2023-05-05T13:04:28.110Z,60.40
2023-05-05T13:07:15.357Z,61.80
2023-05-05T13:09:43.323Z,63.30
2023-05-05T13:12:13.389Z,60.30
2023-05-05T13:14:41.169Z,60.70
2023-05-05T13:17:08.853Z,61.20
2023-05-05T13:19:41.914Z,61.70
2023-05-05T13:22:13.260Z,61.90
2023-05-05T13:24:50.618Z,62.00
2023-05-05T13:27:19.359Z,61.20
2023-05-05T13:29:46.874Z,61.00
2023-05-05T13:32:14.476Z,59.60
2023-05-05T13:34:42.756Z,61.10
2023-05-05T13:37:09.919Z,61.10
2023-05-05T13:39:37.129Z,61.30
2023-05-05T13:42:04.509Z,60.50
2023-05-05T13:44:31.603Z,60.40
2023-05-05T13:46:58.846Z,61.40
2023-05-05T13:49:26.092Z,60.40
2023-05-05T13:51:53.192Z,60.10
2023-05-05T13:54:20.336Z,59.80
2023-05-05T13:56:47.555Z,60.60
2023-05-05T13:59:14.748Z,60.10
2023-05-05T14:01:41.963Z,59.40
2023-05-05T14:04:09.275Z,60.00
2023-05-05T14:06:36.600Z,59.10
2023-05-05T14:09:06.099Z,59.00
2023-05-05T14:11:33.629Z,58.70
2023-05-05T14:14:00.899Z,59.30
2023-05-05T14:16:28.061Z,59.90
2023-05-05T14:18:55.172Z,59.50
2023-05-05T14:21:24.142Z,59.80
2023-05-05T14:23:51.387Z,59.30
2023-05-05T14:26:18.674Z,57.40
2023-05-05T14:28:49.007Z,58.70
2023-05-05T14:31:17.833Z,58.30
2023-05-05T14:33:45.100Z,59.10
2023-05-05T14:36:12.292Z,59.40
2023-05-05T14:38:39.637Z,58.70
2023-05-05T14:41:06.866Z,58.40
2023-05-05T14:43:34.135Z,57.50
2023-05-05T14:46:06.863Z,58.00
2023-05-05T14:48:34.739Z,58.00
2023-05-05T14:51:02.062Z,56.20
2023-05-05T14:53:29.242Z,54.70
2023-05-05T14:55:56.538Z,53.40
2023-05-05T14:58:24.876Z,51.20
2023-05-05T15:00:53.133Z,49.10
2023-05-05T15:03:21.019Z,47.40
2023-05-05T15:05:48.327Z,47.10
2023-05-05T15:08:18.923Z,47.40
2023-05-05T15:10:46.812Z,46.50
2023-05-05T15:13:16.938Z,46.50
2023-05-05T15:15:45.328Z,45.00
2023-05-05T15:18:12.534Z,45.50
2023-05-05T15:20:39.768Z,46.70
2023-05-05T15:23:07.380Z,49.20
2023-05-05T15:25:35.165Z,52.10
2023-05-05T15:28:02.405Z,53.30
2023-05-05T15:30:30.544Z,54.20
2023-05-05T15:32:57.822Z,55.80
2023-05-05T15:35:25.938Z,56.10
2023-05-05T15:37:54.411Z,57.60
2023-05-05T15:40:21.812Z,57.40
2023-05-05T15:42:49.963Z,56.90
2023-05-05T15:45:18.006Z,57.40
2023-05-05T15:47:46.142Z,57.30
2023-05-05T15:50:13.557Z,57.10
2023-05-05T15:52:40.893Z,57.50
2023-05-05T15:55:09.516Z,57.70
2023-05-05T15:57:39.773Z,58.20
2023-05-05T16:00:08.934Z,58.40
2023-05-05T16:02:36.487Z,57.70
2023-05-05T16:05:04.917Z,58.20
2023-05-05T16:07:32.186Z,58.30
2023-05-05T16:09:59.348Z,58.90
2023-05-05T16:12:26.490Z,58.50
2023-05-05T16:14:53.646Z,58.70
2023-05-05T16:17:22.376Z,59.00
2023-05-05T16:19:50.062Z,59.50
2023-05-05T16:22:17.280Z,60.20
2023-05-05T16:24:44.513Z,59.90
2023-05-05T16:27:11.828Z,60.40
2023-05-05T16:29:39.132Z,60.10
2023-05-05T16:32:06.373Z,60.90
2023-05-05T16:34:33.486Z,60.90
2023-05-05T16:37:01.034Z,61.40
2023-05-05T16:39:28.414Z,61.30
2023-05-05T16:41:55.895Z,61.50
2023-05-05T16:44:23.378Z,61.90
2023-05-05T16:46:50.646Z,62.50
2023-05-05T16:49:18.547Z,62.30
2023-05-05T16:51:45.683Z,62.80
2023-05-05T16:54:12.877Z,62.80
2023-05-05T16:56:39.914Z,63.20
2023-05-05T16:59:07.246Z,63.60
2023-05-05T17:01:35.097Z,64.30
2023-05-05T17:04:02.675Z,64.00
2023-05-05T17:06:33.120Z,63.90
2023-05-05T17:09:00.486Z,64.60
2023-05-05T17:11:27.656Z,64.70
2023-05-05T17:13:54.868Z,64.90
2023-05-05T17:16:22.146Z,65.10
2023-05-05T17:18:49.433Z,65.30
2023-05-05T17:21:16.613Z,65.70
2023-05-05T17:23:44.542Z,66.10
2023-05-05T17:26:11.821Z,66.60
2023-05-05T17:28:38.948Z,66.90
2023-05-05T17:31:06.317Z,67.00
2023-05-05T17:33:35.931Z,67.50
2023-05-05T17:36:05.668Z,68.00
2023-05-05T17:38:36.528Z,68.40
2023-05-05T17:41:06.342Z,68.70
2023-05-05T17:43:34.337Z,69.50
2023-05-05T17:46:01.726Z,68.90
2023-05-05T17:48:31.630Z,69.60
2023-05-05T17:51:01.168Z,69.20
2023-05-05T17:53:31.207Z,71.10
2023-05-05T17:55:58.789Z,71.90
2023-05-05T17:58:28.862Z,72.90
2023-05-05T18:00:58.648Z,74.10
2023-05-05T18:03:28.384Z,75.00
2023-05-05T18:05:58.370Z,76.10
2023-05-05T18:08:28.605Z,76.80
2023-05-05T18:10:58.744Z,77.60
2023-05-05T18:13:29.317Z,78.50
2023-05-05T18:15:59.903Z,79.40
2023-05-05T18:18:30.010Z,79.90
2023-05-05T18:21:00.415Z,80.90
2023-05-05T18:23:29.888Z,82.00
2023-05-05T18:25:58.809Z,82.80
2023-05-05T18:28:29.080Z,84.70
2023-05-05T18:30:59.273Z,85.70
2023-05-05T18:33:30.064Z,87.10
2023-05-05T18:35:59.885Z,88.60
2023-05-05T18:38:27.174Z,90.90
2023-05-05T18:40:54.454Z,91.80
2023-05-05T18:43:21.575Z,92.70
2023-05-05T18:45:48.733Z,94.10
2023-05-05T18:48:16.575Z,95.20
2023-05-05T18:50:43.664Z,96.70
2023-05-05T18:53:13.703Z,98.10
2023-05-05T18:55:42.950Z,99.40
2023-05-05T18:58:10.296Z,99.90
2023-05-05T19:00:37.571Z,99.90
2023-05-05T19:03:04.740Z,99.90
2023-05-05T19:05:31.971Z,99.90
2023-05-05T19:07:59.072Z,99.90
2023-05-05T19:10:26.440Z,99.90
2023-05-05T19:12:55.699Z,99.90
2023-05-05T19:15:23.088Z,99.90
2023-05-05T19:17:50.408Z,99.90
2023-05-05T19:20:17.580Z,99.90
2023-05-05T19:22:44.758Z,99.90
2023-05-05T19:25:14.502Z,99.90
2023-05-05T19:27:42.021Z,99.90
2023-05-05T19:30:09.951Z,99.90
2023-05-05T19:32:37.138Z,99.90
2023-05-05T19:35:07.027Z,99.90
2023-05-05T19:37:34.324Z,99.90
2023-05-05T19:40:02.867Z,99.90
2023-05-05T19:42:30.094Z,99.90
2023-05-05T19:44:57.403Z,99.90
2023-05-05T19:47:24.699Z,99.90
2023-05-05T19:49:51.839Z,99.90
2023-05-05T19:52:19.068Z,99.90
2023-05-05T19:54:46.240Z,99.90
2023-05-05T19:57:13.438Z,99.90
2023-05-05T19:59:42.029Z,99.90
2023-05-05T20:02:10.345Z,99.90
2023-05-05T20:04:37.518Z,99.90
2023-05-05T20:07:04.834Z,99.90
2023-05-05T20:09:36.310Z,99.90
2023-05-05T20:12:10.368Z,99.90
2023-05-05T20:14:44.657Z,99.90
2023-05-05T20:17:18.225Z,99.90
2023-05-05T20:19:51.341Z,99.90
2023-05-05T20:22:19.202Z,99.90
2023-05-05T20:24:47.593Z,99.90
2023-05-05T20:27:16.348Z,99.90
2023-05-05T20:29:43.750Z,99.90
2023-05-05T20:32:16.244Z,99.90
2023-05-05T20:35:07.880Z,99.90
2023-05-05T20:37:35.011Z,99.90
2023-05-05T20:40:05.366Z,99.90
2023-05-05T20:42:32.720Z,99.90
2023-05-05T20:45:01.532Z,99.90
2023-05-05T20:47:28.849Z,99.90
2023-05-05T20:49:56.329Z,99.90
2023-05-05T20:52:28.237Z,99.90
2023-05-05T20:54:59.251Z,99.90
2023-05-05T20:57:28.066Z,99.90
2023-05-05T20:59:55.534Z,99.90
2023-05-05T21:02:23.082Z,99.90
2023-05-05T21:04:51.200Z,99.90
2023-05-05T21:07:28.893Z,99.90
2023-05-05T21:09:56.194Z,99.90
2023-05-05T21:12:23.367Z,99.90
2023-05-05T21:14:51.089Z,99.90
2023-05-05T21:17:19.092Z,99.90
2023-05-05T21:19:46.454Z,99.90
2023-05-05T21:22:14.397Z,99.90
2023-05-05T21:24:41.563Z,99.90
2023-05-05T21:27:08.714Z,99.90
2023-05-05T21:29:37.969Z,99.90
2023-05-05T21:32:07.631Z,99.90
2023-05-05T21:34:35.346Z,99.90
2023-05-05T21:37:03.379Z,99.90
2023-05-05T21:39:33.112Z,99.90
2023-05-05T21:42:01.516Z,99.90
2023-05-05T21:44:29.204Z,99.90
2023-05-05T21:46:56.585Z,99.90
2023-05-05T21:49:24.153Z,99.90
2023-05-05T21:51:52.024Z,99.90
2023-05-05T21:54:19.209Z,99.90
2023-05-05T21:56:46.271Z,99.90
2023-05-05T21:59:15.230Z,99.90
2023-05-05T22:01:43.213Z,99.90
2023-05-05T22:04:10.483Z,99.90
2023-05-05T22:06:37.682Z,99.90
2023-05-05T22:09:04.789Z,99.90
2023-05-05T22:11:31.937Z,99.90
2023-05-05T22:13:59.048Z,99.90
2023-05-05T22:16:26.199Z,99.90
2023-05-05T22:18:53.475Z,99.90
2023-05-05T22:21:22.184Z,99.90
2023-05-05T22:23:49.368Z,99.90
2023-05-05T22:26:16.454Z,99.90
2023-05-05T22:28:43.655Z,99.90
2023-05-05T22:31:11.117Z,99.90
2023-05-05T22:33:38.295Z,99.90
2023-05-05T22:36:05.747Z,99.90
2023-05-05T22:38:32.864Z,99.90
2023-05-05T22:40:59.968Z,99.90
2023-05-05T22:43:27.124Z,99.90
2023-05-05T22:45:54.295Z,99.90
2023-05-05T22:48:21.816Z,99.90
2023-05-05T22:50:48.909Z,99.90
2023-05-05T22:53:16.136Z,99.90
2023-05-05T22:55:43.402Z,99.90
2023-05-05T22:58:10.567Z,99.90
2023-05-05T23:00:37.823Z,99.90
2023-05-05T23:03:05.140Z,99.90
2023-05-05T23:05:32.331Z,99.90
2023-05-05T23:08:01.590Z,99.90
2023-05-05T23:10:30.194Z,99.90
2023-05-05T23:12:57.350Z,99.90
2023-05-05T23:15:25.101Z,99.90
2023-05-05T23:17:52.412Z,99.90
2023-05-05T23:20:19.720Z,99.90
2023-05-05T23:22:46.907Z,99.90
2023-05-05T23:25:14.117Z,99.90
2023-05-05T23:27:41.462Z,99.90
2023-05-05T23:30:09.776Z,99.90
2023-05-05T23:32:37.080Z,99.90
2023-05-05T23:35:04.515Z,99.90
2023-05-05T23:37:31.750Z,99.90
2023-05-05T23:39:58.879Z,99.90
2023-05-05T23:42:25.978Z,99.90
2023-05-05T23:44:53.237Z,99.90
2023-05-05T23:47:20.414Z,99.90
2023-05-05T23:49:47.546Z,99.90
2023-05-05T23:52:14.770Z,99.90
2023-05-05T23:54:42.222Z,99.90
2023-05-05T23:57:09.613Z,99.90
2023-05-05T23:59:36.753Z,99.90
